Terminal Aerodrome Forecast
Issued by NWS Wilmington, NC

Home | Current Version | Previous Version | Text Only | Print | Product List | Glossary On
Versions: 1 2 3 4 5 6 7 8 9 10 11 12 13
366
FTUS42 KILM 291120
TAFILM
TAF
KILM 291120Z 2912/3012 23008KT P6SM SKC
     FM291800 22011KT P6SM VCTS SCT035CB SCT250
     FM300000 22007KT P6SM SCT250=

USA.gov is the U.S. government's official web portal to all federal, state and local government web resources and services.